sensor_id;sensor_type;location;lat;lon;timestamp;pressure;altitude;pressure_sealevel;temperature;humidity
44441;BME280;30146;52.268;20.944;2022-10-16T00:00:50;100430.69;;;15.23;61.76
44441;BME280;30146;52.268;20.944;2022-10-16T00:03:22;100435.12;;;15.24;61.65
44441;BME280;30146;52.268;20.944;2022-10-16T00:06:02;100430.23;;;15.26;61.70
44441;BME280;30146;52.268;20.944;2022-10-16T00:08:34;100431.56;;;15.28;61.78
44441;BME280;30146;52.268;20.944;2022-10-16T00:11:07;100429.96;;;15.31;61.79
44441;BME280;30146;52.268;20.944;2022-10-16T00:13:45;100424.72;;;15.33;61.80
44441;BME280;30146;52.268;20.944;2022-10-16T00:16:15;100421.39;;;15.35;61.73
44441;BME280;30146;52.268;20.944;2022-10-16T00:18:47;100424.64;;;15.36;61.75
44441;BME280;30146;52.268;20.944;2022-10-16T00:21:23;100424.43;;;15.37;61.82
44441;BME280;30146;52.268;20.944;2022-10-16T00:23:57;100428.41;;;15.37;61.65
44441;BME280;30146;52.268;20.944;2022-10-16T00:26:31;100424.41;;;15.37;61.88
44441;BME280;30146;52.268;20.944;2022-10-16T00:29:03;100425.58;;;15.39;61.95
44441;BME280;30146;52.268;20.944;2022-10-16T00:31:35;100426.23;;;15.40;61.91
44441;BME280;30146;52.268;20.944;2022-10-16T00:34:07;100426.02;;;15.42;61.82
44441;BME280;30146;52.268;20.944;2022-10-16T00:36:38;100428.89;;;15.44;62.08
44441;BME280;30146;52.268;20.944;2022-10-16T00:39:09;100430.59;;;15.45;61.93
44441;BME280;30146;52.268;20.944;2022-10-16T00:41:41;100429.88;;;15.46;61.91
44441;BME280;30146;52.268;20.944;2022-10-16T00:44:58;100433.67;;;15.45;61.89
44441;BME280;30146;52.268;20.944;2022-10-16T00:47:33;100436.66;;;15.43;61.81
44441;BME280;30146;52.268;20.944;2022-10-16T00:50:09;100440.54;;;15.40;61.62
44441;BME280;30146;52.268;20.944;2022-10-16T00:52:44;100441.78;;;15.39;61.76
44441;BME280;30146;52.268;20.944;2022-10-16T00:55:16;100442.98;;;15.38;61.73
44441;BME280;30146;52.268;20.944;2022-10-16T00:57:48;100446.67;;;15.36;61.54
44441;BME280;30146;52.268;20.944;2022-10-16T01:00:23;100450.16;;;15.35;61.77
44441;BME280;30146;52.268;20.944;2022-10-16T01:02:58;100447.09;;;15.34;61.73
44441;BME280;30146;52.268;20.944;2022-10-16T01:05:30;100449.51;;;15.34;61.73
44441;BME280;30146;52.268;20.944;2022-10-16T01:08:12;100454.31;;;15.34;61.72
44441;BME280;30146;52.268;20.944;2022-10-16T01:10:52;100454.92;;;15.30;61.49
44441;BME280;30146;52.268;20.944;2022-10-16T01:13:29;100462.91;;;15.28;61.51
44441;BME280;30146;52.268;20.944;2022-10-16T01:16:09;100464.02;;;15.26;61.58
44441;BME280;30146;52.268;20.944;2022-10-16T01:18:46;100455.63;;;15.24;61.75
44441;BME280;30146;52.268;20.944;2022-10-16T01:21:25;100453.54;;;15.25;61.93
44441;BME280;30146;52.268;20.944;2022-10-16T01:24:03;100451.98;;;15.25;61.96
44441;BME280;30146;52.268;20.944;2022-10-16T01:26:59;100454.42;;;15.23;61.94
44441;BME280;30146;52.268;20.944;2022-10-16T01:29:36;100460.33;;;15.22;61.91
44441;BME280;30146;52.268;20.944;2022-10-16T01:32:13;100465.55;;;15.19;61.85
44441;BME280;30146;52.268;20.944;2022-10-16T01:34:51;100466.15;;;15.16;61.83
44441;BME280;30146;52.268;20.944;2022-10-16T01:37:32;100473.61;;;15.14;61.88
44441;BME280;30146;52.268;20.944;2022-10-16T01:40:07;100475.02;;;15.13;61.95
44441;BME280;30146;52.268;20.944;2022-10-16T01:42:44;100472.27;;;15.12;62.05
44441;BME280;30146;52.268;20.944;2022-10-16T01:45:19;100472.14;;;15.11;61.96
44441;BME280;30146;52.268;20.944;2022-10-16T01:47:52;100474.76;;;15.10;61.97
44441;BME280;30146;52.268;20.944;2022-10-16T01:50:25;100471.34;;;15.09;62.06
44441;BME280;30146;52.268;20.944;2022-10-16T01:52:59;100468.95;;;15.08;62.02
44441;BME280;30146;52.268;20.944;2022-10-16T01:55:31;100465.19;;;15.07;62.07
44441;BME280;30146;52.268;20.944;2022-10-16T01:58:07;100460.45;;;15.04;61.89
44441;BME280;30146;52.268;20.944;2022-10-16T02:00:43;100460.05;;;14.99;62.01
44441;BME280;30146;52.268;20.944;2022-10-16T02:03:18;100462.73;;;14.95;62.07
44441;BME280;30146;52.268;20.944;2022-10-16T02:05:53;100464.57;;;14.91;62.25
44441;BME280;30146;52.268;20.944;2022-10-16T02:08:28;100467.17;;;14.90;62.30
44441;BME280;30146;52.268;20.944;2022-10-16T02:11:01;100467.69;;;14.90;62.52
44441;BME280;30146;52.268;20.944;2022-10-16T02:16:13;100459.98;;;14.89;62.47
44441;BME280;30146;52.268;20.944;2022-10-16T02:18:45;100456.67;;;14.90;62.51
44441;BME280;30146;52.268;20.944;2022-10-16T02:21:18;100455.31;;;14.90;62.40
44441;BME280;30146;52.268;20.944;2022-10-16T02:23:57;100459.14;;;14.88;62.45
44441;BME280;30146;52.268;20.944;2022-10-16T02:26:37;100457.82;;;14.86;62.37
44441;BME280;30146;52.268;20.944;2022-10-16T02:29:16;100459.95;;;14.82;62.43
44441;BME280;30146;52.268;20.944;2022-10-16T02:31:52;100459.29;;;14.82;62.60
44441;BME280;30146;52.268;20.944;2022-10-16T02:34:27;100457.20;;;14.82;62.57
44441;BME280;30146;52.268;20.944;2022-10-16T02:37:02;100461.15;;;14.83;62.73
44441;BME280;30146;52.268;20.944;2022-10-16T02:39:35;100453.09;;;14.82;62.60
44441;BME280;30146;52.268;20.944;2022-10-16T02:42:15;100459.36;;;14.79;62.57
44441;BME280;30146;52.268;20.944;2022-10-16T02:44:46;100467.14;;;14.77;62.64
44441;BME280;30146;52.268;20.944;2022-10-16T02:47:18;100469.05;;;14.77;62.63
44441;BME280;30146;52.268;20.944;2022-10-16T02:49:49;100468.90;;;14.76;62.68
44441;BME280;30146;52.268;20.944;2022-10-16T02:52:20;100467.40;;;14.73;62.62
44441;BME280;30146;52.268;20.944;2022-10-16T02:54:53;100471.69;;;14.74;62.72
44441;BME280;30146;52.268;20.944;2022-10-16T02:57:25;100471.84;;;14.75;62.86
44441;BME280;30146;52.268;20.944;2022-10-16T02:59:58;100476.14;;;14.76;62.81
44441;BME280;30146;52.268;20.944;2022-10-16T03:02:29;100477.95;;;14.78;62.91
44441;BME280;30146;52.268;20.944;2022-10-16T03:05:00;100483.26;;;14.80;62.81
44441;BME280;30146;52.268;20.944;2022-10-16T03:07:32;100486.13;;;14.82;62.89
44441;BME280;30146;52.268;20.944;2022-10-16T03:10:04;100485.55;;;14.85;62.93
44441;BME280;30146;52.268;20.944;2022-10-16T03:12:37;100487.73;;;14.87;62.85
44441;BME280;30146;52.268;20.944;2022-10-16T03:15:09;100489.26;;;14.88;62.74
44441;BME280;30146;52.268;20.944;2022-10-16T03:17:41;100495.98;;;14.88;62.74
44441;BME280;30146;52.268;20.944;2022-10-16T03:20:13;100496.31;;;14.88;62.75
44441;BME280;30146;52.268;20.944;2022-10-16T03:22:44;100497.19;;;14.87;62.83
44441;BME280;30146;52.268;20.944;2022-10-16T03:25:16;100500.64;;;14.87;62.80
44441;BME280;30146;52.268;20.944;2022-10-16T03:27:52;100494.61;;;14.87;62.76
44441;BME280;30146;52.268;20.944;2022-10-16T03:30:23;100499.10;;;14.87;62.74
44441;BME280;30146;52.268;20.944;2022-10-16T03:32:54;100500.19;;;14.85;62.63
44441;BME280;30146;52.268;20.944;2022-10-16T03:35:26;100500.20;;;14.83;62.75
44441;BME280;30146;52.268;20.944;2022-10-16T03:37:57;100499.41;;;14.80;62.70
44441;BME280;30146;52.268;20.944;2022-10-16T03:40:31;100497.68;;;14.81;62.76
44441;BME280;30146;52.268;20.944;2022-10-16T03:43:03;100501.61;;;14.82;62.86
44441;BME280;30146;52.268;20.944;2022-10-16T03:45:34;100502.16;;;14.81;62.75
44441;BME280;30146;52.268;20.944;2022-10-16T03:48:06;100504.80;;;14.78;62.72
44441;BME280;30146;52.268;20.944;2022-10-16T03:50:37;100508.42;;;14.78;62.74
44441;BME280;30146;52.268;20.944;2022-10-16T03:53:09;100506.35;;;14.79;62.83
44441;BME280;30146;52.268;20.944;2022-10-16T03:55:42;100514.09;;;14.78;62.78
44441;BME280;30146;52.268;20.944;2022-10-16T03:58:14;100514.30;;;14.77;62.82
44441;BME280;30146;52.268;20.944;2022-10-16T04:00:45;100511.08;;;14.75;62.67
44441;BME280;30146;52.268;20.944;2022-10-16T04:03:17;100514.70;;;14.75;62.85
44441;BME280;30146;52.268;20.944;2022-10-16T04:05:49;100515.96;;;14.72;62.82
44441;BME280;30146;52.268;20.944;2022-10-16T04:08:20;100513.81;;;14.69;62.73
44441;BME280;30146;52.268;20.944;2022-10-16T04:10:52;100510.31;;;14.65;62.78
44441;BME280;30146;52.268;20.944;2022-10-16T04:13:23;100506.27;;;14.61;62.67
44441;BME280;30146;52.268;20.944;2022-10-16T04:15:54;100507.20;;;14.57;62.72
44441;BME280;30146;52.268;20.944;2022-10-16T04:18:25;100514.14;;;14.53;62.86
44441;BME280;30146;52.268;20.944;2022-10-16T04:21:04;100515.23;;;14.52;62.97
44441;BME280;30146;52.268;20.944;2022-10-16T04:23:36;100512.36;;;14.49;63.03
44441;BME280;30146;52.268;20.944;2022-10-16T04:26:08;100517.07;;;14.46;62.99
44441;BME280;30146;52.268;20.944;2022-10-16T04:28:40;100520.05;;;14.42;62.99
44441;BME280;30146;52.268;20.944;2022-10-16T04:31:12;100519.95;;;14.40;63.15
44441;BME280;30146;52.268;20.944;2022-10-16T04:33:45;100520.88;;;14.37;63.06
44441;BME280;30146;52.268;20.944;2022-10-16T04:36:19;100526.44;;;14.34;63.17
44441;BME280;30146;52.268;20.944;2022-10-16T04:38:55;100525.77;;;14.33;63.37
44441;BME280;30146;52.268;20.944;2022-10-16T04:41:27;100526.64;;;14.32;63.48
44441;BME280;30146;52.268;20.944;2022-10-16T04:43:58;100525.95;;;14.33;63.53
44441;BME280;30146;52.268;20.944;2022-10-16T04:46:30;100530.95;;;14.32;63.51
44441;BME280;30146;52.268;20.944;2022-10-16T04:49:01;100533.23;;;14.30;63.48
44441;BME280;30146;52.268;20.944;2022-10-16T04:51:33;100533.08;;;14.29;63.54
44441;BME280;30146;52.268;20.944;2022-10-16T04:54:04;100535.90;;;14.26;63.50
44441;BME280;30146;52.268;20.944;2022-10-16T04:56:35;100537.15;;;14.23;63.55
44441;BME280;30146;52.268;20.944;2022-10-16T04:59:14;100539.11;;;14.21;63.60
44441;BME280;30146;52.268;20.944;2022-10-16T05:01:46;100539.13;;;14.20;63.68
44441;BME280;30146;52.268;20.944;2022-10-16T05:04:17;100542.12;;;14.17;63.70
44441;BME280;30146;52.268;20.944;2022-10-16T05:06:49;100543.04;;;14.14;63.69
44441;BME280;30146;52.268;20.944;2022-10-16T05:09:20;100547.02;;;14.13;63.89
44441;BME280;30146;52.268;20.944;2022-10-16T05:11:53;100550.64;;;14.12;63.93
44441;BME280;30146;52.268;20.944;2022-10-16T05:14:25;100562.69;;;14.11;63.98
44441;BME280;30146;52.268;20.944;2022-10-16T05:16:56;100571.45;;;14.11;63.92
44441;BME280;30146;52.268;20.944;2022-10-16T05:19:27;100568.90;;;14.09;63.93
44441;BME280;30146;52.268;20.944;2022-10-16T05:21:58;100569.27;;;14.09;64.06
44441;BME280;30146;52.268;20.944;2022-10-16T05:24:30;100565.99;;;14.09;64.04
44441;BME280;30146;52.268;20.944;2022-10-16T05:27:01;100564.63;;;14.09;64.07
44441;BME280;30146;52.268;20.944;2022-10-16T05:29:33;100566.69;;;14.09;64.04
44441;BME280;30146;52.268;20.944;2022-10-16T05:32:05;100567.18;;;14.11;64.18
44441;BME280;30146;52.268;20.944;2022-10-16T05:34:36;100569.71;;;14.12;64.00
44441;BME280;30146;52.268;20.944;2022-10-16T05:37:08;100565.25;;;14.12;64.05
44441;BME280;30146;52.268;20.944;2022-10-16T05:39:40;100564.88;;;14.14;64.08
44441;BME280;30146;52.268;20.944;2022-10-16T05:42:11;100561.09;;;14.13;64.03
44441;BME280;30146;52.268;20.944;2022-10-16T05:44:42;100561.96;;;14.13;63.96
44441;BME280;30146;52.268;20.944;2022-10-16T05:47:15;100565.76;;;14.20;64.15
44441;BME280;30146;52.268;20.944;2022-10-16T05:49:46;100568.17;;;14.53;64.63
44441;BME280;30146;52.268;20.944;2022-10-16T05:52:17;100569.55;;;14.92;64.44
44441;BME280;30146;52.268;20.944;2022-10-16T05:54:49;100573.11;;;15.29;64.09
44441;BME280;30146;52.268;20.944;2022-10-16T05:57:21;100576.27;;;15.67;63.59
44441;BME280;30146;52.268;20.944;2022-10-16T05:59:52;100582.52;;;15.85;63.03
44441;BME280;30146;52.268;20.944;2022-10-16T06:02:28;100585.03;;;15.94;62.30
44441;BME280;30146;52.268;20.944;2022-10-16T06:04:59;100585.15;;;16.08;62.09
44441;BME280;30146;52.268;20.944;2022-10-16T06:07:35;100585.51;;;16.38;62.18
44441;BME280;30146;52.268;20.944;2022-10-16T06:10:05;100591.73;;;16.78;62.04
44441;BME280;30146;52.268;20.944;2022-10-16T06:12:41;100594.45;;;17.28;61.89
44441;BME280;30146;52.268;20.944;2022-10-16T06:15:12;100596.86;;;17.99;61.66
44441;BME280;30146;52.268;20.944;2022-10-16T06:17:44;100589.80;;;18.59;60.95
44441;BME280;30146;52.268;20.944;2022-10-16T06:20:15;100594.30;;;18.99;60.16
44441;BME280;30146;52.268;20.944;2022-10-16T06:22:47;100597.19;;;19.63;59.79
44441;BME280;30146;52.268;20.944;2022-10-16T06:25:18;100590.65;;;20.17;58.97
44441;BME280;30146;52.268;20.944;2022-10-16T06:27:49;100591.42;;;20.79;58.53
44441;BME280;30146;52.268;20.944;2022-10-16T06:30:20;100594.13;;;21.39;57.60
44441;BME280;30146;52.268;20.944;2022-10-16T06:32:51;100605.17;;;21.91;56.48
44441;BME280;30146;52.268;20.944;2022-10-16T06:35:27;100604.95;;;22.35;55.31
44441;BME280;30146;52.268;20.944;2022-10-16T06:38:01;100602.59;;;22.93;55.13
44441;BME280;30146;52.268;20.944;2022-10-16T06:40:37;100603.19;;;23.64;54.94
44441;BME280;30146;52.268;20.944;2022-10-16T06:43:09;100607.84;;;24.40;53.94
44441;BME280;30146;52.268;20.944;2022-10-16T06:45:40;100612.66;;;24.96;52.60
44441;BME280;30146;52.268;20.944;2022-10-16T06:48:11;100614.36;;;25.34;51.64
44441;BME280;30146;52.268;20.944;2022-10-16T06:50:43;100615.77;;;25.78;50.84
44441;BME280;30146;52.268;20.944;2022-10-16T06:53:16;100621.27;;;26.16;49.90
44441;BME280;30146;52.268;20.944;2022-10-16T06:55:48;100611.16;;;26.49;48.89
44441;BME280;30146;52.268;20.944;2022-10-16T06:58:19;100614.34;;;26.76;48.47
44441;BME280;30146;52.268;20.944;2022-10-16T07:00:56;100618.21;;;27.21;48.14
44441;BME280;30146;52.268;20.944;2022-10-16T07:03:32;100622.58;;;27.68;47.12
44441;BME280;30146;52.268;20.944;2022-10-16T07:06:05;100628.10;;;27.41;44.87
44441;BME280;30146;52.268;20.944;2022-10-16T07:08:38;100629.38;;;26.49;43.42
44441;BME280;30146;52.268;20.944;2022-10-16T07:11:12;100625.17;;;25.53;43.39
44441;BME280;30146;52.268;20.944;2022-10-16T07:13:45;100635.48;;;24.65;44.05
44441;BME280;30146;52.268;20.944;2022-10-16T07:16:24;100642.27;;;23.82;44.55
44441;BME280;30146;52.268;20.944;2022-10-16T07:18:57;100641.28;;;23.12;45.03
44441;BME280;30146;52.268;20.944;2022-10-16T07:21:31;100652.57;;;22.43;45.45
44441;BME280;30146;52.268;20.944;2022-10-16T07:24:10;100655.38;;;21.76;46.09
44441;BME280;30146;52.268;20.944;2022-10-16T07:26:43;100652.98;;;21.19;46.78
44441;BME280;30146;52.268;20.944;2022-10-16T07:29:17;100647.95;;;20.60;47.13
44441;BME280;30146;52.268;20.944;2022-10-16T07:31:49;100646.73;;;20.05;47.73
44441;BME280;30146;52.268;20.944;2022-10-16T07:34:21;100635.03;;;19.62;48.60
44441;BME280;30146;52.268;20.944;2022-10-16T07:36:53;100626.16;;;19.29;49.44
44441;BME280;30146;52.268;20.944;2022-10-16T07:39:26;100629.58;;;19.05;50.14
44441;BME280;30146;52.268;20.944;2022-10-16T07:41:57;100628.09;;;19.03;50.77
44441;BME280;30146;52.268;20.944;2022-10-16T07:44:29;100628.45;;;19.70;51.77
44441;BME280;30146;52.268;20.944;2022-10-16T07:47:00;100621.54;;;20.52;51.90
44441;BME280;30146;52.268;20.944;2022-10-16T07:49:32;100627.48;;;21.53;52.15
44441;BME280;30146;52.268;20.944;2022-10-16T07:52:03;100644.39;;;22.34;50.65
44441;BME280;30146;52.268;20.944;2022-10-16T07:54:35;100643.99;;;22.70;50.18
44441;BME280;30146;52.268;20.944;2022-10-16T07:57:06;100632.88;;;23.01;49.60
44441;BME280;30146;52.268;20.944;2022-10-16T07:59:37;100634.52;;;23.36;48.60
44441;BME280;30146;52.268;20.944;2022-10-16T08:02:10;100631.16;;;23.49;47.98
44441;BME280;30146;52.268;20.944;2022-10-16T08:04:41;100638.13;;;23.49;47.91
44441;BME280;30146;52.268;20.944;2022-10-16T08:07:13;100647.32;;;23.44;47.48
44441;BME280;30146;52.268;20.944;2022-10-16T08:09:44;100654.39;;;23.18;46.99
44441;BME280;30146;52.268;20.944;2022-10-16T08:12:15;100655.99;;;22.98;47.42
44441;BME280;30146;52.268;20.944;2022-10-16T08:14:46;100659.52;;;22.88;47.46
44441;BME280;30146;52.268;20.944;2022-10-16T08:17:18;100658.23;;;22.71;47.46
44441;BME280;30146;52.268;20.944;2022-10-16T08:19:49;100657.23;;;22.51;47.27
44441;BME280;30146;52.268;20.944;2022-10-16T08:22:20;100659.61;;;22.26;47.48
44441;BME280;30146;52.268;20.944;2022-10-16T08:24:51;100659.35;;;22.00;47.82
44441;BME280;30146;52.268;20.944;2022-10-16T08:27:23;100660.44;;;21.89;48.34
44441;BME280;30146;52.268;20.944;2022-10-16T08:29:55;100663.79;;;21.85;48.58
44441;BME280;30146;52.268;20.944;2022-10-16T08:32:26;100671.80;;;21.92;49.08
44441;BME280;30146;52.268;20.944;2022-10-16T08:34:58;100672.22;;;22.01;49.12
44441;BME280;30146;52.268;20.944;2022-10-16T08:37:32;100676.51;;;22.08;49.19
44441;BME280;30146;52.268;20.944;2022-10-16T08:40:05;100680.20;;;22.11;49.28
44441;BME280;30146;52.268;20.944;2022-10-16T08:42:47;100680.13;;;22.13;49.39
44441;BME280;30146;52.268;20.944;2022-10-16T08:45:35;100678.55;;;22.09;49.36
44441;BME280;30146;52.268;20.944;2022-10-16T08:48:21;100681.55;;;22.08;49.23
44441;BME280;30146;52.268;20.944;2022-10-16T08:50:56;100677.16;;;21.99;49.26
44441;BME280;30146;52.268;20.944;2022-10-16T08:53:31;100679.64;;;22.02;49.40
44441;BME280;30146;52.268;20.944;2022-10-16T08:56:08;100679.87;;;22.47;50.06
44441;BME280;30146;52.268;20.944;2022-10-16T08:58:40;100678.10;;;22.99;49.82
44441;BME280;30146;52.268;20.944;2022-10-16T09:01:14;100681.64;;;23.20;49.37
44441;BME280;30146;52.268;20.944;2022-10-16T09:04:07;100685.33;;;23.44;49.33
44441;BME280;30146;52.268;20.944;2022-10-16T09:06:48;100686.16;;;23.66;48.85
44441;BME280;30146;52.268;20.944;2022-10-16T09:09:48;100689.24;;;23.64;48.15
44441;BME280;30146;52.268;20.944;2022-10-16T09:12:28;100686.19;;;23.56;48.14
44441;BME280;30146;52.268;20.944;2022-10-16T09:15:15;100678.66;;;23.60;48.18
44441;BME280;30146;52.268;20.944;2022-10-16T09:17:54;100673.95;;;23.63;47.89
44441;BME280;30146;52.268;20.944;2022-10-16T09:20:34;100672.41;;;23.84;48.60
44441;BME280;30146;52.268;20.944;2022-10-16T09:23:17;100679.19;;;24.13;48.88
44441;BME280;30146;52.268;20.944;2022-10-16T09:25:50;100677.10;;;24.36;48.13
44441;BME280;30146;52.268;20.944;2022-10-16T09:28:22;100675.11;;;24.39;47.64
44441;BME280;30146;52.268;20.944;2022-10-16T09:30:53;100669.77;;;24.33;47.28
44441;BME280;30146;52.268;20.944;2022-10-16T09:33:28;100666.69;;;24.26;47.12
44441;BME280;30146;52.268;20.944;2022-10-16T09:36:04;100672.61;;;24.15;47.07
44441;BME280;30146;52.268;20.944;2022-10-16T09:38:37;100674.75;;;23.94;46.75
44441;BME280;30146;52.268;20.944;2022-10-16T09:41:16;100672.42;;;23.80;46.89
44441;BME280;30146;52.268;20.944;2022-10-16T09:43:55;100671.35;;;23.69;47.14
44441;BME280;30146;52.268;20.944;2022-10-16T09:46:32;100672.50;;;23.58;47.27
44441;BME280;30146;52.268;20.944;2022-10-16T09:49:16;100674.57;;;23.43;46.98
44441;BME280;30146;52.268;20.944;2022-10-16T09:51:49;100674.89;;;23.22;47.23
44441;BME280;30146;52.268;20.944;2022-10-16T09:54:22;100679.95;;;23.16;47.50
44441;BME280;30146;52.268;20.944;2022-10-16T09:57:03;100676.70;;;23.12;47.82
44441;BME280;30146;52.268;20.944;2022-10-16T09:59:47;100674.65;;;23.11;48.01
44441;BME280;30146;52.268;20.944;2022-10-16T10:02:28;100679.32;;;23.09;48.04
44441;BME280;30146;52.268;20.944;2022-10-16T10:05:00;100679.20;;;23.08;48.09
44441;BME280;30146;52.268;20.944;2022-10-16T10:07:35;100677.24;;;23.09;48.25
44441;BME280;30146;52.268;20.944;2022-10-16T10:10:21;100675.39;;;23.14;48.56
44441;BME280;30146;52.268;20.944;2022-10-16T10:12:54;100678.39;;;23.22;48.51
44441;BME280;30146;52.268;20.944;2022-10-16T10:15:36;100676.52;;;23.28;48.29
44441;BME280;30146;52.268;20.944;2022-10-16T10:18:18;100677.35;;;23.35;48.46
44441;BME280;30146;52.268;20.944;2022-10-16T10:21:00;100674.05;;;23.40;48.30
44441;BME280;30146;52.268;20.944;2022-10-16T10:23:35;100668.23;;;23.38;47.97
44441;BME280;30146;52.268;20.944;2022-10-16T10:26:12;100665.33;;;23.34;47.97
44441;BME280;30146;52.268;20.944;2022-10-16T10:28:57;100662.56;;;23.31;48.02
44441;BME280;30146;52.268;20.944;2022-10-16T10:31:36;100663.16;;;23.26;48.03
44441;BME280;30146;52.268;20.944;2022-10-16T10:34:23;100655.77;;;23.21;48.06
44441;BME280;30146;52.268;20.944;2022-10-16T10:37:04;100659.10;;;23.18;48.14
44441;BME280;30146;52.268;20.944;2022-10-16T10:39:49;100665.65;;;23.14;48.19
44441;BME280;30146;52.268;20.944;2022-10-16T10:42:27;100669.65;;;23.07;48.03
44441;BME280;30146;52.268;20.944;2022-10-16T10:45:15;100667.23;;;22.94;47.86
44441;BME280;30146;52.268;20.944;2022-10-16T10:47:56;100665.42;;;22.79;47.82
44441;BME280;30146;52.268;20.944;2022-10-16T10:50:36;100665.55;;;22.68;48.19
44441;BME280;30146;52.268;20.944;2022-10-16T10:53:21;100661.25;;;22.57;48.23
44441;BME280;30146;52.268;20.944;2022-10-16T10:56:03;100660.16;;;22.45;48.30
44441;BME280;30146;52.268;20.944;2022-10-16T10:58:57;100659.34;;;22.37;48.58
44441;BME280;30146;52.268;20.944;2022-10-16T11:01:39;100666.15;;;22.34;48.77
44441;BME280;30146;52.268;20.944;2022-10-16T11:04:37;100665.98;;;22.27;48.60
44441;BME280;30146;52.268;20.944;2022-10-16T11:07:17;100662.83;;;22.17;48.80
44441;BME280;30146;52.268;20.944;2022-10-16T11:09:53;100661.94;;;22.14;49.01
44441;BME280;30146;52.268;20.944;2022-10-16T11:12:27;100662.86;;;22.13;49.11
44441;BME280;30146;52.268;20.944;2022-10-16T11:15:05;100663.89;;;22.14;49.30
44441;BME280;30146;52.268;20.944;2022-10-16T11:17:44;100666.02;;;22.13;49.32
44441;BME280;30146;52.268;20.944;2022-10-16T11:20:23;100660.62;;;22.09;49.27
44441;BME280;30146;52.268;20.944;2022-10-16T11:22:59;100664.58;;;22.07;49.46
44441;BME280;30146;52.268;20.944;2022-10-16T11:25:36;100653.31;;;22.03;49.18
44441;BME280;30146;52.268;20.944;2022-10-16T11:28:14;100654.69;;;22.00;49.47
44441;BME280;30146;52.268;20.944;2022-10-16T11:30:51;100656.42;;;22.00;49.61
44441;BME280;30146;52.268;20.944;2022-10-16T11:33:29;100671.67;;;22.01;49.63
44441;BME280;30146;52.268;20.944;2022-10-16T11:36:11;100681.22;;;21.98;49.47
44441;BME280;30146;52.268;20.944;2022-10-16T11:38:54;100672.69;;;21.91;49.48
44441;BME280;30146;52.268;20.944;2022-10-16T11:41:37;100671.88;;;21.80;49.44
44441;BME280;30146;52.268;20.944;2022-10-16T11:44:19;100666.95;;;21.71;49.67
44441;BME280;30146;52.268;20.944;2022-10-16T11:46:57;100670.45;;;21.63;49.73
44441;BME280;30146;52.268;20.944;2022-10-16T11:49:55;100658.90;;;21.58;50.02
44441;BME280;30146;52.268;20.944;2022-10-16T11:52:33;100657.03;;;21.61;50.39
44441;BME280;30146;52.268;20.944;2022-10-16T11:55:18;100653.13;;;21.62;50.23
44441;BME280;30146;52.268;20.944;2022-10-16T11:57:53;100651.98;;;21.64;50.47
44441;BME280;30146;52.268;20.944;2022-10-16T12:00:30;100654.69;;;21.62;50.38
44441;BME280;30146;52.268;20.944;2022-10-16T12:03:14;100655.44;;;21.58;50.29
44441;BME280;30146;52.268;20.944;2022-10-16T12:06:10;100659.17;;;21.52;50.41
44441;BME280;30146;52.268;20.944;2022-10-16T12:08:44;100656.55;;;21.49;50.54
44441;BME280;30146;52.268;20.944;2022-10-16T12:11:35;100657.45;;;21.45;50.54
44441;BME280;30146;52.268;20.944;2022-10-16T12:14:22;100659.91;;;21.40;50.71
44441;BME280;30146;52.268;20.944;2022-10-16T12:17:27;100665.87;;;21.43;50.87
44441;BME280;30146;52.268;20.944;2022-10-16T12:20:22;100672.09;;;21.48;51.16
44441;BME280;30146;52.268;20.944;2022-10-16T12:22:58;100676.61;;;21.55;51.18
44441;BME280;30146;52.268;20.944;2022-10-16T12:25:31;100681.30;;;21.59;51.19
44441;BME280;30146;52.268;20.944;2022-10-16T12:28:06;100674.05;;;21.61;51.11
44441;BME280;30146;52.268;20.944;2022-10-16T12:30:54;100674.82;;;21.60;50.95
44441;BME280;30146;52.268;20.944;2022-10-16T12:33:27;100674.88;;;21.59;51.02
44441;BME280;30146;52.268;20.944;2022-10-16T12:36:01;100682.05;;;21.58;50.92
44441;BME280;30146;52.268;20.944;2022-10-16T12:38:38;100682.16;;;21.55;51.02
44441;BME280;30146;52.268;20.944;2022-10-16T12:41:26;100680.55;;;21.57;51.26
44441;BME280;30146;52.268;20.944;2022-10-16T12:43:59;100682.95;;;21.57;51.20
44441;BME280;30146;52.268;20.944;2022-10-16T12:46:39;100679.23;;;21.55;51.11
44441;BME280;30146;52.268;20.944;2022-10-16T12:49:30;100689.85;;;21.55;51.43
44441;BME280;30146;52.268;20.944;2022-10-16T12:52:01;100692.45;;;21.55;51.25
44441;BME280;30146;52.268;20.944;2022-10-16T12:54:37;100694.77;;;21.54;51.20
44441;BME280;30146;52.268;20.944;2022-10-16T12:57:30;100692.59;;;21.48;51.15
44441;BME280;30146;52.268;20.944;2022-10-16T13:00:18;100685.67;;;21.41;51.02
44441;BME280;30146;52.268;20.944;2022-10-16T13:06:02;100679.69;;;21.20;51.36
44441;BME280;30146;52.268;20.944;2022-10-16T13:08:51;100685.16;;;21.00;51.84
44441;BME280;30146;52.268;20.944;2022-10-16T13:11:37;100687.33;;;20.80;52.00
44441;BME280;30146;52.268;20.944;2022-10-16T13:17:27;100696.84;;;20.53;52.18
44441;BME280;30146;52.268;20.944;2022-10-16T13:20:11;100701.01;;;20.49;52.44
44441;BME280;30146;52.268;20.944;2022-10-16T13:22:58;100700.75;;;20.48;52.64
44441;BME280;30146;52.268;20.944;2022-10-16T13:25:49;100706.67;;;20.47;52.70
44441;BME280;30146;52.268;20.944;2022-10-16T13:28:29;100711.73;;;20.47;52.90
44441;BME280;30146;52.268;20.944;2022-10-16T13:31:02;100711.71;;;20.47;53.10
44441;BME280;30146;52.268;20.944;2022-10-16T13:33:36;100710.82;;;20.48;53.15